sensor_id;sensor_type;location;lat;lon;timestamp;P1;durP1;ratioP1;P2;durP2;ratioP2
42886;SDS011;29032;56.028;92.904;2023-05-10T00:03:33;2.53;;;2.07;;
42886;SDS011;29032;56.028;92.904;2023-05-10T00:08:53;2.60;;;2.20;;
42886;SDS011;29032;56.028;92.904;2023-05-10T00:13:55;2.90;;;2.30;;
42886;SDS011;29032;56.028;92.904;2023-05-10T00:18:59;6.63;;;2.40;;
42886;SDS011;29032;56.028;92.904;2023-05-10T00:24:19;2.67;;;2.27;;
42886;SDS011;29032;56.028;92.904;2023-05-10T00:29:21;2.67;;;2.00;;
42886;SDS011;29032;56.028;92.904;2023-05-10T00:34:43;2.23;;;1.90;;
42886;SDS011;29032;56.028;92.904;2023-05-10T00:39:46;2.57;;;2.10;;
42886;SDS011;29032;56.028;92.904;2023-05-10T00:44:48;4.13;;;2.27;;
42886;SDS011;29032;56.028;92.904;2023-05-10T00:55:31;4.43;;;2.60;;
42886;SDS011;29032;56.028;92.904;2023-05-10T01:00:33;4.13;;;2.10;;
42886;SDS011;29032;56.028;92.904;2023-05-10T01:05:38;2.43;;;2.00;;
42886;SDS011;29032;56.028;92.904;2023-05-10T01:10:40;2.93;;;2.17;;
42886;SDS011;29032;56.028;92.904;2023-05-10T01:15:43;2.50;;;2.30;;
42886;SDS011;29032;56.028;92.904;2023-05-10T01:26:33;2.23;;;2.03;;
42886;SDS011;29032;56.028;92.904;2023-05-10T01:32:13;1.80;;;1.70;;
42886;SDS011;29032;56.028;92.904;2023-05-10T01:37:21;2.53;;;1.90;;
42886;SDS011;29032;56.028;92.904;2023-05-10T01:42:31;2.37;;;1.90;;
42886;SDS011;29032;56.028;92.904;2023-05-10T01:47:43;2.47;;;2.27;;
42886;SDS011;29032;56.028;92.904;2023-05-10T01:57:52;2.57;;;2.00;;
42886;SDS011;29032;56.028;92.904;2023-05-10T02:08:24;2.33;;;1.90;;
42886;SDS011;29032;56.028;92.904;2023-05-10T02:13:27;2.70;;;2.50;;
42886;SDS011;29032;56.028;92.904;2023-05-10T02:18:35;2.15;;;1.95;;
42886;SDS011;29032;56.028;92.904;2023-05-10T02:23:56;2.70;;;1.80;;
42886;SDS011;29032;56.028;92.904;2023-05-10T02:28:59;2.97;;;2.00;;
42886;SDS011;29032;56.028;92.904;2023-05-10T02:34:04;2.67;;;1.90;;
42886;SDS011;29032;56.028;92.904;2023-05-10T02:39:09;1.80;;;1.70;;
42886;SDS011;29032;56.028;92.904;2023-05-10T02:44:12;2.53;;;2.20;;
42886;SDS011;29032;56.028;92.904;2023-05-10T02:49:24;1.97;;;1.77;;
42886;SDS011;29032;56.028;92.904;2023-05-10T02:54:27;2.83;;;2.27;;
42886;SDS011;29032;56.028;92.904;2023-05-10T02:59:48;2.70;;;1.67;;
42886;SDS011;29032;56.028;92.904;2023-05-10T03:04:52;2.43;;;1.80;;
42886;SDS011;29032;56.028;92.904;2023-05-10T03:09:54;1.90;;;1.80;;
42886;SDS011;29032;56.028;92.904;2023-05-10T03:14:57;3.27;;;2.07;;
42886;SDS011;29032;56.028;92.904;2023-05-10T03:25:49;2.50;;;2.23;;
42886;SDS011;29032;56.028;92.904;2023-05-10T03:30:52;2.40;;;1.90;;
42886;SDS011;29032;56.028;92.904;2023-05-10T03:35:56;2.47;;;2.13;;
42886;SDS011;29032;56.028;92.904;2023-05-10T03:40:58;2.43;;;1.80;;
42886;SDS011;29032;56.028;92.904;2023-05-10T03:46:19;1.87;;;1.77;;
42886;SDS011;29032;56.028;92.904;2023-05-10T03:51:22;2.37;;;2.00;;
42886;SDS011;29032;56.028;92.904;2023-05-10T03:56:25;2.10;;;1.90;;
42886;SDS011;29032;56.028;92.904;2023-05-10T04:06:48;2.20;;;1.90;;
42886;SDS011;29032;56.028;92.904;2023-05-10T04:11:50;2.17;;;1.97;;
42886;SDS011;29032;56.028;92.904;2023-05-10T04:16:52;1.90;;;1.80;;
42886;SDS011;29032;56.028;92.904;2023-05-10T04:21:56;2.50;;;2.10;;
42886;SDS011;29032;56.028;92.904;2023-05-10T04:26:58;2.60;;;2.40;;
42886;SDS011;29032;56.028;92.904;2023-05-10T04:32:00;2.70;;;1.80;;
42886;SDS011;29032;56.028;92.904;2023-05-10T04:37:04;2.37;;;1.70;;
42886;SDS011;29032;56.028;92.904;2023-05-10T04:42:24;2.23;;;2.00;;
42886;SDS011;29032;56.028;92.904;2023-05-10T04:47:26;1.73;;;1.63;;
42886;SDS011;29032;56.028;92.904;2023-05-10T04:52:30;9.53;;;2.17;;
42886;SDS011;29032;56.028;92.904;2023-05-10T04:57:32;2.97;;;1.93;;
42886;SDS011;29032;56.028;92.904;2023-05-10T05:02:34;2.67;;;2.27;;
42886;SDS011;29032;56.028;92.904;2023-05-10T05:07:56;4.40;;;2.20;;
42886;SDS011;29032;56.028;92.904;2023-05-10T05:12:58;2.87;;;2.40;;
42886;SDS011;29032;56.028;92.904;2023-05-10T05:18:00;4.03;;;2.10;;
42886;SDS011;29032;56.028;92.904;2023-05-10T05:23:03;2.80;;;2.40;;
42886;SDS011;29032;56.028;92.904;2023-05-10T05:38:47;5.17;;;3.00;;
42886;SDS011;29032;56.028;92.904;2023-05-10T05:43:49;2.97;;;2.20;;
42886;SDS011;29032;56.028;92.904;2023-05-10T05:48:51;2.67;;;2.10;;
42886;SDS011;29032;56.028;92.904;2023-05-10T05:53:55;1.97;;;1.80;;
42886;SDS011;29032;56.028;92.904;2023-05-10T05:58:57;2.30;;;2.10;;
42886;SDS011;29032;56.028;92.904;2023-05-10T06:03:59;2.83;;;2.17;;
42886;SDS011;29032;56.028;92.904;2023-05-10T06:09:02;1.90;;;1.70;;
42886;SDS011;29032;56.028;92.904;2023-05-10T06:14:04;2.30;;;2.07;;
42886;SDS011;29032;56.028;92.904;2023-05-10T06:24:47;1.80;;;1.70;;
42886;SDS011;29032;56.028;92.904;2023-05-10T06:29:49;1.70;;;1.60;;
42886;SDS011;29032;56.028;92.904;2023-05-10T06:34:51;1.97;;;1.57;;
42886;SDS011;29032;56.028;92.904;2023-05-10T06:39:55;2.63;;;1.87;;
42886;SDS011;29032;56.028;92.904;2023-05-10T06:44:57;4.23;;;1.97;;
42886;SDS011;29032;56.028;92.904;2023-05-10T06:49:59;1.80;;;1.70;;
42886;SDS011;29032;56.028;92.904;2023-05-10T06:55:21;1.87;;;1.57;;
42886;SDS011;29032;56.028;92.904;2023-05-10T07:00:41;2.30;;;1.70;;
42886;SDS011;29032;56.028;92.904;2023-05-10T07:05:43;1.60;;;1.50;;
42886;SDS011;29032;56.028;92.904;2023-05-10T07:10:47;1.50;;;1.40;;
42886;SDS011;29032;56.028;92.904;2023-05-10T07:16:07;2.63;;;1.60;;
42886;SDS011;29032;56.028;92.904;2023-05-10T07:21:09;2.37;;;1.90;;
42886;SDS011;29032;56.028;92.904;2023-05-10T07:31:33;1.97;;;1.73;;
42886;SDS011;29032;56.028;92.904;2023-05-10T07:36:53;3.03;;;1.63;;
42886;SDS011;29032;56.028;92.904;2023-05-10T07:41:57;1.57;;;1.47;;
42886;SDS011;29032;56.028;92.904;2023-05-10T07:46:59;1.83;;;1.40;;
42886;SDS011;29032;56.028;92.904;2023-05-10T07:52:01;3.23;;;1.50;;
42886;SDS011;29032;56.028;92.904;2023-05-10T07:57:24;1.53;;;1.30;;
42886;SDS011;29032;56.028;92.904;2023-05-10T08:02:26;1.50;;;1.40;;
42886;SDS011;29032;56.028;92.904;2023-05-10T08:07:28;1.40;;;1.30;;
42886;SDS011;29032;56.028;92.904;2023-05-10T08:12:32;3.40;;;1.50;;
42886;SDS011;29032;56.028;92.904;2023-05-10T08:17:34;3.43;;;1.50;;
42886;SDS011;29032;56.028;92.904;2023-05-10T08:22:36;3.63;;;1.90;;
42886;SDS011;29032;56.028;92.904;2023-05-10T08:27:40;2.20;;;1.60;;
42886;SDS011;29032;56.028;92.904;2023-05-10T08:32:42;1.40;;;1.30;;
42886;SDS011;29032;56.028;92.904;2023-05-10T08:43:06;2.53;;;1.50;;
42886;SDS011;29032;56.028;92.904;2023-05-10T08:48:10;1.70;;;1.45;;
42886;SDS011;29032;56.028;92.904;2023-05-10T08:53:12;1.30;;;1.20;;
42886;SDS011;29032;56.028;92.904;2023-05-10T08:58:17;1.53;;;1.40;;
42886;SDS011;29032;56.028;92.904;2023-05-10T09:03:39;1.43;;;1.33;;
42886;SDS011;29032;56.028;92.904;2023-05-10T09:08:42;1.50;;;1.40;;
42886;SDS011;29032;56.028;92.904;2023-05-10T09:13:46;1.40;;;1.30;;
42886;SDS011;29032;56.028;92.904;2023-05-10T09:18:49;1.93;;;1.40;;
42886;SDS011;29032;56.028;92.904;2023-05-10T09:23:51;1.87;;;1.23;;
42886;SDS011;29032;56.028;92.904;2023-05-10T09:28:55;3.00;;;1.40;;
42886;SDS011;29032;56.028;92.904;2023-05-10T09:34:16;1.50;;;1.40;;
42886;SDS011;29032;56.028;92.904;2023-05-10T09:39:19;4.10;;;1.43;;
42886;SDS011;29032;56.028;92.904;2023-05-10T09:44:23;1.17;;;1.10;;
42886;SDS011;29032;56.028;92.904;2023-05-10T09:49:27;1.60;;;1.20;;
42886;SDS011;29032;56.028;92.904;2023-05-10T09:54:30;1.90;;;1.30;;
42886;SDS011;29032;56.028;92.904;2023-05-10T09:59:52;3.10;;;1.60;;
42886;SDS011;29032;56.028;92.904;2023-05-10T10:04:54;3.27;;;1.57;;
42886;SDS011;29032;56.028;92.904;2023-05-10T10:09:56;2.30;;;1.40;;
42886;SDS011;29032;56.028;92.904;2023-05-10T10:15:01;1.40;;;1.30;;
42886;SDS011;29032;56.028;92.904;2023-05-10T10:25:24;2.07;;;1.50;;
42886;SDS011;29032;56.028;92.904;2023-05-10T10:30:47;1.20;;;1.10;;
42886;SDS011;29032;56.028;92.904;2023-05-10T10:35:52;5.55;;;1.45;;
42886;SDS011;29032;56.028;92.904;2023-05-10T10:41:01;4.68;;;1.52;;
42886;SDS011;29032;56.028;92.904;2023-05-10T10:46:23;1.58;;;1.33;;
42886;SDS011;29032;56.028;92.904;2023-05-10T10:51:26;1.27;;;1.10;;
42886;SDS011;29032;56.028;92.904;2023-05-10T10:56:30;2.57;;;1.30;;
42886;SDS011;29032;56.028;92.904;2023-05-10T11:01:33;2.85;;;1.98;;
42886;SDS011;29032;56.028;92.904;2023-05-10T11:12:17;2.25;;;1.63;;
42886;SDS011;29032;56.028;92.904;2023-05-10T11:17:23;1.83;;;1.13;;
42886;SDS011;29032;56.028;92.904;2023-05-10T11:22:26;2.07;;;1.30;;
42886;SDS011;29032;56.028;92.904;2023-05-10T11:27:28;1.43;;;1.33;;
42886;SDS011;29032;56.028;92.904;2023-05-10T11:32:31;5.63;;;1.50;;
42886;SDS011;29032;56.028;92.904;2023-05-10T11:37:34;1.60;;;1.50;;
42886;SDS011;29032;56.028;92.904;2023-05-10T11:53:39;3.27;;;1.50;;
42886;SDS011;29032;56.028;92.904;2023-05-10T11:58:41;2.00;;;1.67;;
42886;SDS011;29032;56.028;92.904;2023-05-10T12:03:45;3.10;;;1.70;;
42886;SDS011;29032;56.028;92.904;2023-05-10T12:14:26;2.00;;;1.50;;
42886;SDS011;29032;56.028;92.904;2023-05-10T12:24:50;4.90;;;1.60;;
42886;SDS011;29032;56.028;92.904;2023-05-10T12:29:52;1.70;;;1.47;;
42886;SDS011;29032;56.028;92.904;2023-05-10T12:34:55;5.20;;;2.00;;
42886;SDS011;29032;56.028;92.904;2023-05-10T12:39:59;2.30;;;1.57;;
42886;SDS011;29032;56.028;92.904;2023-05-10T12:45:19;4.53;;;2.00;;
42886;SDS011;29032;56.028;92.904;2023-05-10T12:50:22;4.53;;;1.93;;
42886;SDS011;29032;56.028;92.904;2023-05-10T12:55:25;3.03;;;1.50;;
42886;SDS011;29032;56.028;92.904;2023-05-10T13:05:48;5.53;;;2.20;;
42886;SDS011;29032;56.028;92.904;2023-05-10T13:11:09;4.43;;;2.90;;
42886;SDS011;29032;56.028;92.904;2023-05-10T13:21:33;4.33;;;2.20;;
42886;SDS011;29032;56.028;92.904;2023-05-10T13:26:35;2.37;;;1.70;;
42886;SDS011;29032;56.028;92.904;2023-05-10T13:31:37;2.80;;;1.77;;
42886;SDS011;29032;56.028;92.904;2023-05-10T13:36:40;3.27;;;1.80;;
42886;SDS011;29032;56.028;92.904;2023-05-10T13:41:42;7.33;;;2.20;;
42886;SDS011;29032;56.028;92.904;2023-05-10T13:46:44;4.70;;;3.10;;
42886;SDS011;29032;56.028;92.904;2023-05-10T13:51:48;8.73;;;4.83;;
42886;SDS011;29032;56.028;92.904;2023-05-10T13:56:50;9.43;;;5.10;;
42886;SDS011;29032;56.028;92.904;2023-05-10T14:01:52;9.43;;;5.37;;
42886;SDS011;29032;56.028;92.904;2023-05-10T14:06:55;12.33;;;6.67;;
42886;SDS011;29032;56.028;92.904;2023-05-10T14:11:57;11.93;;;6.87;;
42886;SDS011;29032;56.028;92.904;2023-05-10T14:17:00;16.10;;;7.40;;
42886;SDS011;29032;56.028;92.904;2023-05-10T14:22:03;13.40;;;8.13;;
42886;SDS011;29032;56.028;92.904;2023-05-10T14:27:05;13.83;;;8.03;;
42886;SDS011;29032;56.028;92.904;2023-05-10T14:32:07;14.00;;;8.10;;
42886;SDS011;29032;56.028;92.904;2023-05-10T14:37:11;12.10;;;6.73;;
42886;SDS011;29032;56.028;92.904;2023-05-10T14:42:14;13.30;;;6.03;;
42886;SDS011;29032;56.028;92.904;2023-05-10T14:52:38;7.67;;;4.30;;
42886;SDS011;29032;56.028;92.904;2023-05-10T14:57:40;7.03;;;4.37;;
42886;SDS011;29032;56.028;92.904;2023-05-10T15:02:42;7.17;;;4.27;;
42886;SDS011;29032;56.028;92.904;2023-05-10T15:07:46;7.67;;;4.47;;
42886;SDS011;29032;56.028;92.904;2023-05-10T15:12:48;8.57;;;4.20;;
42886;SDS011;29032;56.028;92.904;2023-05-10T15:18:08;7.13;;;3.87;;
42886;SDS011;29032;56.028;92.904;2023-05-10T15:23:12;8.80;;;4.20;;
42886;SDS011;29032;56.028;92.904;2023-05-10T15:28:14;6.87;;;5.00;;
42886;SDS011;29032;56.028;92.904;2023-05-10T15:33:16;10.37;;;5.77;;
42886;SDS011;29032;56.028;92.904;2023-05-10T15:38:19;11.80;;;6.67;;
42886;SDS011;29032;56.028;92.904;2023-05-10T15:48:42;12.17;;;6.37;;
42886;SDS011;29032;56.028;92.904;2023-05-10T15:53:45;9.83;;;5.13;;
42886;SDS011;29032;56.028;92.904;2023-05-10T15:58:48;7.53;;;4.87;;
42886;SDS011;29032;56.028;92.904;2023-05-10T16:03:50;7.37;;;4.60;;
42886;SDS011;29032;56.028;92.904;2023-05-10T16:08:53;8.93;;;6.00;;
42886;SDS011;29032;56.028;92.904;2023-05-10T16:13:55;38.30;;;19.53;;
42886;SDS011;29032;56.028;92.904;2023-05-10T16:18:57;76.13;;;35.93;;
42886;SDS011;29032;56.028;92.904;2023-05-10T16:24:01;81.43;;;41.30;;
42886;SDS011;29032;56.028;92.904;2023-05-10T16:29:22;73.17;;;37.43;;
42886;SDS011;29032;56.028;92.904;2023-05-10T16:34:43;64.33;;;32.67;;
42886;SDS011;29032;56.028;92.904;2023-05-10T16:39:47;56.60;;;29.47;;
42886;SDS011;29032;56.028;92.904;2023-05-10T16:44:49;53.03;;;27.53;;
42886;SDS011;29032;56.028;92.904;2023-05-10T16:49:51;54.27;;;28.60;;
42886;SDS011;29032;56.028;92.904;2023-05-10T16:54:55;38.20;;;22.03;;
42886;SDS011;29032;56.028;92.904;2023-05-10T16:59:57;24.63;;;14.57;;
42886;SDS011;29032;56.028;92.904;2023-05-10T17:04:59;24.47;;;14.20;;
42886;SDS011;29032;56.028;92.904;2023-05-10T17:10:03;28.13;;;15.97;;
42886;SDS011;29032;56.028;92.904;2023-05-10T17:15:06;34.07;;;16.50;;
42886;SDS011;29032;56.028;92.904;2023-05-10T17:20:09;27.33;;;14.27;;
42886;SDS011;29032;56.028;92.904;2023-05-10T17:25:13;24.50;;;11.77;;
42886;SDS011;29032;56.028;92.904;2023-05-10T17:30:15;17.23;;;10.63;;
42886;SDS011;29032;56.028;92.904;2023-05-10T17:35:17;15.97;;;9.57;;
42886;SDS011;29032;56.028;92.904;2023-05-10T17:40:21;15.80;;;9.07;;
42886;SDS011;29032;56.028;92.904;2023-05-10T17:45:23;14.40;;;8.87;;
42886;SDS011;29032;56.028;92.904;2023-05-10T17:50:24;17.07;;;9.27;;
42886;SDS011;29032;56.028;92.904;2023-05-10T17:55:28;14.97;;;8.73;;
42886;SDS011;29032;56.028;92.904;2023-05-10T18:00:30;14.27;;;8.10;;
42886;SDS011;29032;56.028;92.904;2023-05-10T18:05:34;12.10;;;7.70;;
42886;SDS011;29032;56.028;92.904;2023-05-10T18:10:56;10.10;;;7.10;;
42886;SDS011;29032;56.028;92.904;2023-05-10T18:15:58;13.07;;;7.80;;
42886;SDS011;29032;56.028;92.904;2023-05-10T18:21:00;12.87;;;7.53;;
42886;SDS011;29032;56.028;92.904;2023-05-10T18:26:03;13.43;;;8.27;;
42886;SDS011;29032;56.028;92.904;2023-05-10T18:31:05;15.30;;;7.70;;
42886;SDS011;29032;56.028;92.904;2023-05-10T18:36:07;14.27;;;8.50;;
42886;SDS011;29032;56.028;92.904;2023-05-10T18:41:11;16.13;;;8.37;;
42886;SDS011;29032;56.028;92.904;2023-05-10T18:46:13;17.03;;;9.77;;
42886;SDS011;29032;56.028;92.904;2023-05-10T18:51:15;15.30;;;9.40;;
42886;SDS011;29032;56.028;92.904;2023-05-10T18:56:18;16.50;;;8.70;;
42886;SDS011;29032;56.028;92.904;2023-05-10T19:06:41;11.20;;;5.13;;
42886;SDS011;29032;56.028;92.904;2023-05-10T19:11:44;7.63;;;4.47;;
42886;SDS011;29032;56.028;92.904;2023-05-10T19:17:05;6.00;;;4.10;;
42886;SDS011;29032;56.028;92.904;2023-05-10T19:22:07;7.33;;;3.67;;
42886;SDS011;29032;56.028;92.904;2023-05-10T19:32:31;6.37;;;3.40;;
42886;SDS011;29032;56.028;92.904;2023-05-10T19:37:33;6.20;;;3.37;;
42886;SDS011;29032;56.028;92.904;2023-05-10T19:42:36;8.43;;;4.07;;
42886;SDS011;29032;56.028;92.904;2023-05-10T19:47:57;6.50;;;3.63;;
42886;SDS011;29032;56.028;92.904;2023-05-10T19:52:59;6.23;;;3.40;;
42886;SDS011;29032;56.028;92.904;2023-05-10T19:58:03;4.97;;;4.00;;
42886;SDS011;29032;56.028;92.904;2023-05-10T20:03:05;6.33;;;3.47;;
42886;SDS011;29032;56.028;92.904;2023-05-10T20:08:07;5.63;;;3.50;;
42886;SDS011;29032;56.028;92.904;2023-05-10T20:18:49;7.82;;;3.58;;
42886;SDS011;29032;56.028;92.904;2023-05-10T20:24:09;4.57;;;3.00;;
42886;SDS011;29032;56.028;92.904;2023-05-10T20:29:11;4.60;;;3.13;;
42886;SDS011;29032;56.028;92.904;2023-05-10T20:34:15;5.87;;;3.30;;
42886;SDS011;29032;56.028;92.904;2023-05-10T20:39:17;6.37;;;3.90;;
42886;SDS011;29032;56.028;92.904;2023-05-10T20:44:19;6.37;;;3.70;;
42886;SDS011;29032;56.028;92.904;2023-05-10T20:49:41;6.47;;;3.77;;
42886;SDS011;29032;56.028;92.904;2023-05-10T20:54:43;7.70;;;4.57;;
42886;SDS011;29032;56.028;92.904;2023-05-10T20:59:45;5.23;;;4.00;;
42886;SDS011;29032;56.028;92.904;2023-05-10T21:04:48;9.03;;;4.37;;
42886;SDS011;29032;56.028;92.904;2023-05-10T21:09:50;10.40;;;4.70;;
42886;SDS011;29032;56.028;92.904;2023-05-10T21:14:52;9.93;;;5.20;;
42886;SDS011;29032;56.028;92.904;2023-05-10T21:20:14;6.63;;;4.60;;
42886;SDS011;29032;56.028;92.904;2023-05-10T21:25:16;9.20;;;4.90;;
42886;SDS011;29032;56.028;92.904;2023-05-10T21:30:18;7.23;;;4.57;;
42886;SDS011;29032;56.028;92.904;2023-05-10T21:35:22;6.00;;;3.70;;
42886;SDS011;29032;56.028;92.904;2023-05-10T21:40:24;6.67;;;3.57;;
42886;SDS011;29032;56.028;92.904;2023-05-10T21:45:26;6.10;;;3.27;;
42886;SDS011;29032;56.028;92.904;2023-05-10T21:50:29;4.30;;;3.00;;
42886;SDS011;29032;56.028;92.904;2023-05-10T21:55:50;6.27;;;4.13;;
42886;SDS011;29032;56.028;92.904;2023-05-10T22:00:52;5.20;;;2.23;;
42886;SDS011;29032;56.028;92.904;2023-05-10T22:05:56;4.03;;;3.03;;
42886;SDS011;29032;56.028;92.904;2023-05-10T22:16:18;4.43;;;3.00;;
42886;SDS011;29032;56.028;92.904;2023-05-10T22:21:22;6.83;;;3.30;;
42886;SDS011;29032;56.028;92.904;2023-05-10T22:26:24;5.60;;;3.47;;
42886;SDS011;29032;56.028;92.904;2023-05-10T22:31:26;6.73;;;3.37;;
42886;SDS011;29032;56.028;92.904;2023-05-10T22:36:29;5.17;;;3.40;;
42886;SDS011;29032;56.028;92.904;2023-05-10T22:41:31;7.00;;;3.20;;
42886;SDS011;29032;56.028;92.904;2023-05-10T22:46:34;4.43;;;3.20;;
42886;SDS011;29032;56.028;92.904;2023-05-10T22:51:56;4.93;;;3.30;;
42886;SDS011;29032;56.028;92.904;2023-05-10T22:56:58;6.17;;;3.27;;
42886;SDS011;29032;56.028;92.904;2023-05-10T23:02:00;5.80;;;3.03;;
42886;SDS011;29032;56.028;92.904;2023-05-10T23:07:04;5.27;;;3.70;;
42886;SDS011;29032;56.028;92.904;2023-05-10T23:12:24;10.10;;;4.20;;
42886;SDS011;29032;56.028;92.904;2023-05-10T23:17:26;6.43;;;4.30;;
42886;SDS011;29032;56.028;92.904;2023-05-10T23:22:30;7.90;;;4.53;;
42886;SDS011;29032;56.028;92.904;2023-05-10T23:27:32;8.50;;;4.00;;
42886;SDS011;29032;56.028;92.904;2023-05-10T23:32:34;6.47;;;3.23;;
42886;SDS011;29032;56.028;92.904;2023-05-10T23:37:38;8.00;;;3.63;;
42886;SDS011;29032;56.028;92.904;2023-05-10T23:42:40;6.20;;;2.80;;
42886;SDS011;29032;56.028;92.904;2023-05-10T23:47:42;3.67;;;2.87;;
42886;SDS011;29032;56.028;92.904;2023-05-10T23:52:45;6.53;;;3.07;;
42886;SDS011;29032;56.028;92.904;2023-05-10T23:58:25;4.77;;;2.83;;
